Hillman, Ohio
Current Conditions -  °F | °C
As of 4:35 AM on Friday 28 Nov 2014 (Local Time) from KFGX Reporting Station
Broken Clouds Broken Clouds  
Wind Chill: 26°   Ceiling: 3300
Heat Index: 26°   Visibility: 10mi
Dew Point: 20°   Wind: 3mph
Humidity: 79%   Direction: 280°W
Pressure: 30.39"   Gusts: NA
Location:  38.8698°N, 83.9081°W
Report Text: KFGX 280935Z AUTO 28003KT 10SM SCT013 SCT018 BKN033 M03/M07 A3039 RMK AO2 T10351066
Loading
Personal Weather Stations






























Interactive Weather Map New forecast layout! Learn more

10-Day Weather Forecast

Advertisements
Track Severe Weather on mobile